createdAt,value
2018-09-11T00:00:27.007Z,99238.88
2018-09-11T00:02:54.410Z,99241.85
2018-09-11T00:05:22.395Z,99238.63
2018-09-11T00:07:50.042Z,99238.34
2018-09-11T00:10:17.707Z,99238.89
2018-09-11T00:12:45.447Z,99246.92
2018-09-11T00:15:13.031Z,99245.33
2018-09-11T00:17:40.731Z,99244.25
2018-09-11T00:20:07.869Z,99249.06
2018-09-11T00:22:35.907Z,99251.73
2018-09-11T00:25:03.727Z,99242.11
2018-09-11T00:27:31.491Z,99244.78
2018-09-11T00:29:59.142Z,99242.11
2018-09-11T00:32:26.738Z,99242.89
2018-09-11T00:34:54.467Z,99238.09
2018-09-11T00:37:21.628Z,99233.00
2018-09-11T00:39:49.435Z,99234.34
2018-09-11T00:42:17.197Z,99226.57
2018-09-11T00:44:44.943Z,99234.05
2018-09-11T00:49:45.172Z,99234.58
2018-09-11T00:52:12.727Z,99238.86
2018-09-11T00:54:40.469Z,99237.52
2018-09-11T00:57:08.019Z,99239.94
2018-09-11T00:59:35.294Z,99243.69
2018-09-11T01:02:02.895Z,99246.86
2018-09-11T01:04:30.584Z,99251.17
2018-09-11T01:06:58.571Z,99253.84
2018-09-11T01:09:25.746Z,99253.84
2018-09-11T01:11:53.526Z,99253.00
2018-09-11T01:14:21.023Z,99257.02
2018-09-11T01:16:48.951Z,99256.23
2018-09-11T01:19:16.582Z,99257.02
2018-09-11T01:21:44.059Z,99260.25
2018-09-11T01:24:11.743Z,99261.84
2018-09-11T01:26:39.447Z,99268.80
2018-09-11T01:29:07.027Z,99266.38
2018-09-11T01:31:34.791Z,99275.75
2018-09-11T01:34:02.506Z,99270.40
2018-09-11T01:36:30.193Z,99273.60
2018-09-11T01:38:57.875Z,99273.86
2018-09-11T01:41:25.728Z,99268.77
2018-09-11T01:43:53.598Z,99272.78
2018-09-11T01:46:21.265Z,99277.06
2018-09-11T01:48:48.894Z,99275.20
2018-09-11T01:51:16.026Z,99274.12
2018-09-11T01:53:43.206Z,99272.78
2018-09-11T01:56:10.835Z,99278.14
2018-09-11T01:58:38.698Z,99273.83
2018-09-11T02:01:06.339Z,99284.02
2018-09-11T02:03:34.423Z,99279.47
2018-09-11T02:06:02.006Z,99290.44
2018-09-11T02:08:29.220Z,99288.28
2018-09-11T02:10:56.894Z,99281.59
2018-09-11T02:13:24.639Z,99279.19
2018-09-11T02:15:51.907Z,99282.12
2018-09-11T02:18:19.586Z,99285.06
2018-09-11T02:20:47.072Z,99281.30
2018-09-11T02:23:14.751Z,99285.05
2018-09-11T02:25:42.567Z,99285.58
2018-09-11T02:28:10.286Z,99285.58
2018-09-11T02:30:37.888Z,99287.44
2018-09-11T02:33:05.588Z,99290.41
2018-09-11T02:35:33.340Z,99286.09
2018-09-11T02:38:00.946Z,99280.22
2018-09-11T02:40:28.734Z,99288.77
2018-09-11T02:42:56.439Z,99286.91
2018-09-11T02:45:24.015Z,99290.66
2018-09-11T02:47:53.628Z,99298.14
2018-09-11T02:50:21.294Z,99295.72
2018-09-11T02:52:48.414Z,99291.18
2018-09-11T02:55:16.390Z,99298.95
2018-09-11T02:57:43.971Z,99291.45
2018-09-11T03:00:11.679Z,99301.06
2018-09-11T03:02:39.411Z,99297.58
2018-09-11T03:05:07.071Z,99301.33
2018-09-11T03:07:34.735Z,99314.70
2018-09-11T03:10:02.579Z,99308.80
2018-09-11T03:12:30.403Z,99303.45
2018-09-11T03:14:58.298Z,99308.27
2018-09-11T03:17:25.903Z,99313.06
2018-09-11T03:19:53.682Z,99311.73
2018-09-11T03:22:21.410Z,99317.63
2018-09-11T03:24:49.026Z,99318.41
2018-09-11T03:27:16.174Z,99323.24
2018-09-11T03:30:00.033Z,99323.24
2018-09-11T03:32:27.644Z,99325.09
2018-09-11T03:34:55.579Z,99319.23
2018-09-11T03:37:23.066Z,99325.62
2018-09-11T03:39:50.827Z,99325.62
2018-09-11T03:42:18.706Z,99324.02
2018-09-11T03:44:46.460Z,99321.08
2018-09-11T03:47:14.030Z,99327.20
2018-09-11T03:49:41.387Z,99329.36
2018-09-11T03:52:08.990Z,99337.37
2018-09-11T03:54:36.780Z,99335.75
2018-09-11T03:57:04.566Z,99337.64
2018-09-11T03:59:32.199Z,99346.73
2018-09-11T04:01:59.723Z,99340.83
2018-09-11T04:04:27.563Z,99347.52
2018-09-11T04:06:55.070Z,99348.30
2018-09-11T04:09:22.875Z,99344.03
2018-09-11T04:11:50.038Z,99350.71
2018-09-11T04:14:17.293Z,99353.94
2018-09-11T04:16:44.866Z,99352.05
2018-09-11T04:19:12.569Z,99353.91
2018-09-11T04:21:40.172Z,99354.72
2018-09-11T04:24:07.771Z,99354.72
2018-09-11T04:26:35.625Z,99349.10
2018-09-11T04:29:03.299Z,99348.80
2018-09-11T04:31:30.997Z,99345.61
2018-09-11T04:33:58.742Z,99355.49
2018-09-11T04:36:26.472Z,99347.72
2018-09-11T04:38:54.015Z,99351.47
2018-09-11T04:41:21.394Z,99349.87
2018-09-11T04:43:49.386Z,99345.81
2018-09-11T04:46:17.051Z,99350.08
2018-09-11T04:48:45.478Z,99352.98
2018-09-11T04:51:13.323Z,99359.19
2018-09-11T04:53:41.058Z,99351.91
2018-09-11T04:56:08.747Z,99349.52
2018-09-11T04:58:36.903Z,99354.58
2018-09-11T05:01:05.580Z,99350.56
2018-09-11T05:03:33.338Z,99350.56
2018-09-11T05:06:00.502Z,99355.65
2018-09-11T05:08:28.134Z,99354.05
2018-09-11T05:11:01.619Z,99355.65
2018-09-11T05:13:47.618Z,99356.72
2018-09-11T05:16:15.559Z,99355.08
2018-09-11T05:18:43.179Z,99359.38
2018-09-11T05:21:10.846Z,99358.83
2018-09-11T05:23:38.566Z,99362.58
2018-09-11T05:26:06.315Z,99363.41
2018-09-11T05:28:33.915Z,99367.41
2018-09-11T05:31:01.595Z,99367.36
2018-09-11T05:33:29.293Z,99375.69
2018-09-11T05:35:56.475Z,99376.50
2018-09-11T05:38:24.032Z,99374.05
2018-09-11T05:40:51.756Z,99386.91
2018-09-11T05:43:19.718Z,99382.32
2018-09-11T05:45:46.850Z,99384.21
2018-09-11T05:48:14.576Z,99381.81
2018-09-11T05:50:42.482Z,99388.23
2018-09-11T05:53:10.030Z,99394.09
2018-09-11T05:55:37.745Z,99385.81
2018-09-11T05:58:05.475Z,99385.03
2018-09-11T06:00:33.167Z,99387.71
2018-09-11T06:03:00.896Z,99389.82
2018-09-11T06:05:28.609Z,99393.83
2018-09-11T06:07:56.394Z,99392.76
2018-09-11T06:10:23.954Z,99395.73
2018-09-11T06:12:51.582Z,99394.68
2018-09-11T06:15:19.070Z,99399.49
2018-09-11T06:18:51.746Z,99397.95
2018-09-11T06:21:19.525Z,99395.83
2018-09-11T06:23:47.300Z,99398.44
2018-09-11T06:26:15.023Z,99390.75
2018-09-11T06:28:42.290Z,99379.69
2018-09-11T06:31:09.994Z,99386.66
2018-09-11T06:33:37.687Z,99394.67
2018-09-11T06:36:05.807Z,99392.82
2018-09-11T06:38:33.570Z,99399.77
2018-09-11T06:41:01.399Z,99403.30
2018-09-11T06:43:29.571Z,99401.66
2018-09-11T06:45:57.286Z,99400.12
2018-09-11T06:48:24.967Z,99399.04
2018-09-11T06:50:52.874Z,99400.42
2018-09-11T06:53:20.731Z,99395.84
2018-09-11T06:55:48.570Z,99403.88
2018-09-11T06:58:16.154Z,99402.55
2018-09-11T07:00:43.489Z,99403.41
2018-09-11T07:03:11.291Z,99399.35
2018-09-11T07:05:38.911Z,99393.19
2018-09-11T07:08:06.754Z,99394.58
2018-09-11T07:10:34.526Z,99395.39
2018-09-11T07:13:02.177Z,99395.92
2018-09-11T07:15:30.359Z,99392.20
2018-09-11T07:17:58.346Z,99398.34
2018-09-11T07:20:26.026Z,99397.30
2018-09-11T07:22:53.733Z,99374.47
2018-09-11T07:25:21.366Z,99378.80
2018-09-11T07:27:49.221Z,99392.78
2018-09-11T07:30:16.875Z,99389.84
2018-09-11T07:32:44.574Z,99395.98
2018-09-11T07:35:12.450Z,99397.36
2018-09-11T07:37:40.213Z,99401.08
2018-09-11T07:40:08.051Z,99402.45
2018-09-11T07:42:35.346Z,99399.53
2018-09-11T07:45:03.202Z,99398.72
2018-09-11T07:47:31.036Z,99399.28
2018-09-11T07:49:58.718Z,99403.04
2018-09-11T07:52:26.372Z,99396.88
2018-09-11T07:54:53.983Z,99402.52
2018-09-11T07:57:21.731Z,99408.95
2018-09-11T07:59:49.532Z,99405.20
2018-09-11T08:02:17.387Z,99409.77
2018-09-11T08:04:44.987Z,99409.25
2018-09-11T08:07:12.759Z,99416.99
2018-09-11T08:09:40.742Z,99409.52
2018-09-11T08:12:08.534Z,99411.16
2018-09-11T08:14:36.383Z,99409.52
2018-09-11T08:17:04.374Z,99403.39
2018-09-11T08:20:55.799Z,99412.77
2018-09-11T08:23:23.554Z,99402.36
2018-09-11T08:25:51.170Z,99402.69
2018-09-11T08:28:19.027Z,99400.54
2018-09-11T08:30:46.196Z,99404.30
2018-09-11T08:33:13.726Z,99400.02
2018-09-11T08:35:41.438Z,99396.53
2018-09-11T08:38:09.026Z,99397.90
2018-09-11T08:40:36.624Z,99397.64
2018-09-11T08:43:05.047Z,99401.66
2018-09-11T08:45:32.735Z,99400.58
2018-09-11T08:48:00.459Z,99400.88
2018-09-11T08:50:28.071Z,99398.20
2018-09-11T08:52:55.915Z,99406.23
2018-09-11T08:55:23.188Z,99405.16
2018-09-11T08:57:50.891Z,99399.28
2018-09-11T09:00:18.575Z,99400.09
2018-09-11T09:02:45.766Z,99397.16
2018-09-11T09:05:13.491Z,99404.38
2018-09-11T09:07:41.295Z,99396.08
2018-09-11T09:10:08.966Z,99396.63
2018-09-11T09:12:36.578Z,99396.11
2018-09-11T09:15:04.203Z,99400.39
2018-09-11T09:17:31.911Z,99395.55
2018-09-11T09:19:59.581Z,99392.61
2018-09-11T09:22:26.730Z,99389.15
2018-09-11T09:24:54.506Z,99391.56
2018-09-11T09:27:22.204Z,99392.91
2018-09-11T09:29:49.992Z,99388.63
2018-09-11T09:32:17.966Z,99395.58
2018-09-11T09:34:45.595Z,99397.21
2018-09-11T09:37:13.306Z,99391.86
2018-09-11T09:39:40.458Z,99386.23
2018-09-11T09:42:08.062Z,99390.52
2018-09-11T09:44:35.363Z,99380.33
2018-09-11T09:47:03.002Z,99389.44
2018-09-11T09:49:30.744Z,99388.91
2018-09-11T09:51:58.567Z,99384.89
2018-09-11T09:54:26.498Z,99381.42
2018-09-11T09:56:54.052Z,99382.77
2018-09-11T09:59:21.439Z,99379.82
2018-09-11T10:01:54.978Z,99376.35
2018-09-11T10:04:22.743Z,99370.70
2018-09-11T10:06:50.499Z,99384.65
2018-09-11T10:09:18.582Z,99372.04
2018-09-11T10:11:46.322Z,99365.63
2018-09-11T10:14:13.882Z,99362.95
2018-09-11T10:16:41.579Z,99363.20
2018-09-11T10:19:09.303Z,99356.80
2018-09-11T10:21:36.906Z,99358.14
2018-09-11T10:24:04.976Z,99362.67
2018-09-11T10:26:32.737Z,99356.30
2018-09-11T10:29:00.491Z,99356.82
2018-09-11T10:31:28.208Z,99349.59
2018-09-11T10:33:55.818Z,99351.72
2018-09-11T10:36:23.507Z,99355.47
2018-09-11T10:38:50.595Z,99349.33
2018-09-11T10:41:18.308Z,99343.44
2018-09-11T10:43:45.884Z,99346.11
2018-09-11T10:46:13.798Z,99341.28
2018-09-11T10:48:41.547Z,99343.69
2018-09-11T10:51:09.078Z,99341.00
2018-09-11T10:53:36.828Z,99334.05
2018-09-11T10:56:04.587Z,99326.27
2018-09-11T10:58:32.347Z,99326.00
2018-09-11T11:00:59.947Z,99331.09
2018-09-11T11:03:27.575Z,99326.28
2018-09-11T11:05:55.366Z,99326.02
2018-09-11T11:08:22.994Z,99329.50
2018-09-11T11:10:50.951Z,99317.96
2018-09-11T11:13:18.498Z,99327.63
2018-09-11T11:15:46.170Z,99320.92
2018-09-11T11:18:13.966Z,99319.30
2018-09-11T11:20:41.657Z,99306.98
2018-09-11T11:23:09.074Z,99323.59
2018-09-11T11:25:36.753Z,99316.37
2018-09-11T11:28:04.551Z,99309.66
2018-09-11T11:30:32.193Z,99306.97
2018-09-11T11:32:59.738Z,99301.61
2018-09-11T11:35:27.587Z,99305.63
2018-09-11T11:37:55.418Z,99299.47
2018-09-11T11:40:23.177Z,99297.05
2018-09-11T11:42:51.019Z,99302.67
2018-09-11T11:45:19.572Z,99303.48
2018-09-11T11:47:47.350Z,99303.22
2018-09-11T11:50:15.071Z,99300.80
2018-09-11T11:52:42.862Z,99293.01
2018-09-11T11:55:10.700Z,99294.89
2018-09-11T11:57:37.674Z,99294.64
2018-09-11T12:00:05.435Z,99297.83
2018-09-11T12:02:33.467Z,99289.52
2018-09-11T12:05:01.101Z,99287.65
2018-09-11T12:07:28.862Z,99279.06
2018-09-11T12:09:56.842Z,99278.78
2018-09-11T12:12:24.589Z,99270.75
2018-09-11T12:14:52.307Z,99277.44
2018-09-11T12:17:19.999Z,99277.17
2018-09-11T12:19:47.654Z,99278.53
2018-09-11T12:22:15.408Z,99277.19
2018-09-11T12:24:43.013Z,99273.95
2018-09-11T12:27:10.771Z,99264.84
2018-09-11T12:29:37.965Z,99265.38
2018-09-11T12:32:05.183Z,99259.47
2018-09-11T12:34:33.043Z,99266.42
2018-09-11T12:37:00.740Z,99264.58
2018-09-11T12:39:28.619Z,99257.05
2018-09-11T12:41:56.306Z,99257.59
2018-09-11T12:44:23.899Z,99249.80
2018-09-11T12:46:51.738Z,99246.60
2018-09-11T12:49:19.519Z,99252.48
2018-09-11T12:51:47.231Z,99250.34
2018-09-11T12:54:14.919Z,99244.41
2018-09-11T12:56:42.481Z,99244.97
2018-09-11T12:59:10.071Z,99249.25
2018-09-11T13:01:37.890Z,99247.38
2018-09-11T13:04:05.800Z,99242.80
2018-09-11T13:06:33.928Z,99236.38
2018-09-11T13:09:01.626Z,99235.05
2018-09-11T13:11:29.306Z,99242.00
2018-09-11T13:13:56.912Z,99232.87
2018-09-11T13:16:24.590Z,99232.87
2018-09-11T13:18:52.579Z,99230.20
2018-09-11T13:21:20.495Z,99233.44
2018-09-11T13:23:48.035Z,99230.48
2018-09-11T13:26:15.676Z,99231.27
2018-09-11T13:28:43.786Z,99233.68
2018-09-11T13:31:10.986Z,99233.16
2018-09-11T13:33:38.809Z,99226.98
2018-09-11T13:36:06.579Z,99222.41
2018-09-11T13:38:34.183Z,99224.81
2018-09-11T13:41:01.887Z,99220.79
2018-09-11T13:43:29.592Z,99215.71
2018-09-11T13:45:57.266Z,99210.89
2018-09-11T13:48:24.959Z,99188.36
2018-09-11T13:50:52.714Z,99213.53
2018-09-11T13:53:19.942Z,99218.91
2018-09-11T13:55:47.595Z,99215.95
2018-09-11T13:58:15.191Z,99218.10
2018-09-11T14:00:42.919Z,99220.22
2018-09-11T14:03:10.031Z,99216.48
2018-09-11T14:05:37.743Z,99202.52
2018-09-11T14:08:06.407Z,99203.05
2018-09-11T14:10:34.197Z,99207.33
2018-09-11T14:13:01.876Z,99200.91
2018-09-11T14:15:29.583Z,99203.84
2018-09-11T14:17:57.520Z,99201.16
2018-09-11T14:20:25.045Z,99201.41
2018-09-11T14:22:52.755Z,99195.77
2018-09-11T14:25:20.576Z,99201.39
2018-09-11T14:27:48.382Z,99198.44
2018-09-11T14:30:15.554Z,99197.62
2018-09-11T14:32:43.541Z,99184.52
2018-09-11T14:35:11.426Z,99187.69
2018-09-11T14:37:38.654Z,99184.75
2018-09-11T14:40:06.313Z,99188.22
2018-09-11T14:42:33.987Z,99185.00
2018-09-11T14:45:01.751Z,99166.80
2018-09-11T14:47:35.575Z,99186.05
2018-09-11T14:50:05.386Z,99188.98
2018-09-11T14:52:33.247Z,99187.39
2018-09-11T14:55:00.822Z,99191.14
2018-09-11T14:57:28.799Z,99189.80
2018-09-11T14:59:55.870Z,99183.91
2018-09-11T15:02:23.603Z,99180.94
2018-09-11T15:04:51.431Z,99177.19
2018-09-11T15:07:19.010Z,99177.97
2018-09-11T15:09:46.846Z,99164.28
2018-09-11T15:12:14.591Z,99166.96
2018-09-11T15:14:42.390Z,99160.25
2018-09-11T15:17:10.044Z,99156.51
2018-09-11T15:19:37.750Z,99153.83
2018-09-11T15:22:05.641Z,99148.45
2018-09-11T15:24:33.407Z,99153.55
2018-09-11T15:27:01.007Z,99146.27
2018-09-11T15:29:28.730Z,99143.59
2018-09-11T15:31:56.463Z,99148.43
2018-09-11T15:34:24.031Z,99148.16
2018-09-11T15:36:51.734Z,99145.72
2018-09-11T15:39:19.479Z,99144.12
2018-09-11T15:41:47.063Z,99134.73
2018-09-11T15:44:15.063Z,99136.33
2018-09-11T15:46:42.726Z,99135.23
2018-09-11T15:49:10.789Z,99139.27
2018-09-11T15:51:38.539Z,99133.62
2018-09-11T15:54:06.583Z,99129.88
2018-09-11T15:56:34.371Z,99133.34
2018-09-11T15:59:02.047Z,99134.43
2018-09-11T16:01:29.860Z,99129.06
2018-09-11T16:03:57.823Z,99129.88
2018-09-11T16:06:24.975Z,99118.33
2018-09-11T16:08:52.667Z,99122.07
2018-09-11T16:11:20.311Z,99120.75
2018-09-11T16:13:48.171Z,99123.95
2018-09-11T16:16:15.755Z,99116.45
2018-09-11T16:18:43.614Z,99121.26
2018-09-11T16:21:11.543Z,99117.23
2018-09-11T16:23:39.307Z,99112.14
2018-09-11T16:26:07.030Z,99117.52
2018-09-11T16:28:34.219Z,99117.23
2018-09-11T16:31:01.860Z,99113.20
2018-09-11T16:33:29.866Z,99119.39
2018-09-11T16:35:57.600Z,99114.30
2018-09-11T16:38:25.339Z,99111.86
2018-09-11T16:40:53.056Z,99118.33
2018-09-11T16:43:20.732Z,99118.86
2018-09-11T16:45:48.571Z,99118.58
2018-09-11T16:48:16.607Z,99117.23
2018-09-11T16:50:44.417Z,99120.98
2018-09-11T16:53:12.075Z,99122.88
2018-09-11T16:55:39.741Z,99113.48
2018-09-11T16:58:06.974Z,99117.52
2018-09-11T17:00:34.342Z,99119.39
2018-09-11T17:03:01.947Z,99127.19
2018-09-11T17:05:29.682Z,99106.85
2018-09-11T17:07:57.518Z,99121.26
2018-09-11T17:10:25.407Z,99129.88
2018-09-11T17:12:53.436Z,99128.25
2018-09-11T17:15:21.816Z,99131.47
2018-09-11T17:17:49.748Z,99130.41
2018-09-11T17:20:17.633Z,99131.75
2018-09-11T17:22:45.200Z,99135.52
2018-09-11T17:25:12.509Z,99133.39
2018-09-11T17:27:40.559Z,99134.76
2018-09-11T17:30:08.071Z,99136.63
2018-09-11T17:32:35.380Z,99136.88
2018-09-11T17:35:03.030Z,99139.06
2018-09-11T17:37:32.050Z,99135.84
2018-09-11T17:39:59.791Z,99138.55
2018-09-11T17:42:27.538Z,99144.20
2018-09-11T17:44:55.308Z,99141.25
2018-09-11T17:47:28.781Z,99135.91
2018-09-11T17:49:57.051Z,99140.73
2018-09-11T17:52:24.779Z,99141.85
2018-09-11T17:54:52.507Z,99143.22
2018-09-11T17:57:20.991Z,99144.83
2018-09-11T17:59:48.640Z,99145.13
2018-09-11T18:02:16.552Z,99151.53
2018-09-11T18:04:44.479Z,99144.62
2018-09-11T18:07:12.299Z,99158.56
2018-09-11T18:09:40.007Z,99166.55
2018-09-11T18:12:07.986Z,99168.41
2018-09-11T18:14:35.790Z,99157.19
2018-09-11T18:17:03.847Z,99177.25
2018-09-11T18:19:31.607Z,99171.09
2018-09-11T18:21:59.483Z,99172.15
2018-09-11T18:24:27.180Z,99170.56
2018-09-11T18:26:54.870Z,99168.96
2018-09-11T18:29:23.872Z,99175.67
2018-09-11T18:31:51.862Z,99170.58
2018-09-11T18:34:19.582Z,99171.66
2018-09-11T18:36:47.340Z,99174.88
2018-09-11T18:39:14.891Z,99180.25
2018-09-11T18:41:43.707Z,99186.42
2018-09-11T18:44:11.475Z,99187.74
2018-09-11T18:46:39.787Z,99194.70
2018-09-11T18:49:08.320Z,99190.68
2018-09-11T18:51:35.976Z,99194.70
2018-09-11T18:54:03.669Z,99193.11
2018-09-11T18:56:31.342Z,99188.56
2018-09-11T18:58:59.051Z,99194.45
2018-09-11T19:01:27.003Z,99195.54
2018-09-11T19:05:50.840Z,99189.12
2018-09-11T19:08:18.595Z,99206.25
2018-09-11T19:10:46.068Z,99209.73
2018-09-11T19:13:13.900Z,99202.52
2018-09-11T19:15:41.595Z,99208.42
2018-09-11T19:18:09.298Z,99206.53
2018-09-11T19:20:37.012Z,99205.73
2018-09-11T19:23:04.738Z,99199.59
2018-09-11T19:25:32.495Z,99203.36
2018-09-11T19:28:00.290Z,99201.22
2018-09-11T19:30:27.926Z,99198.02
2018-09-11T19:32:55.659Z,99197.48
2018-09-11T19:35:23.296Z,99193.20
2018-09-11T19:37:51.543Z,99204.19
2018-09-11T19:40:20.835Z,99196.40
2018-09-11T19:42:48.023Z,99197.48
2018-09-11T19:45:15.827Z,99200.98
2018-09-11T19:47:43.578Z,99198.83
2018-09-11T19:50:11.409Z,99203.92
2018-09-11T19:52:38.598Z,99202.05
2018-09-11T19:55:07.049Z,99209.81
2018-09-11T19:57:34.755Z,99207.67
2018-09-11T20:00:02.540Z,99199.66
2018-09-11T20:02:30.039Z,99202.85
2018-09-11T20:04:57.813Z,99201.25
2018-09-11T20:07:25.527Z,99198.27
2018-09-11T20:09:53.459Z,99201.77
2018-09-11T20:12:21.007Z,99199.63
2018-09-11T20:17:44.411Z,99207.41
2018-09-11T20:20:12.062Z,99202.57
2018-09-11T20:22:39.731Z,99204.45
2018-09-11T20:25:07.475Z,99202.57
2018-09-11T20:27:35.039Z,99206.88
2018-09-11T20:30:02.994Z,99198.55
2018-09-11T20:32:30.788Z,99202.57
2018-09-11T20:34:58.555Z,99198.30
2018-09-11T20:37:26.176Z,99199.89
2018-09-11T20:39:53.910Z,99200.16
2018-09-11T20:42:21.719Z,99205.53
2018-09-11T20:44:49.532Z,99206.09
2018-09-11T20:47:17.055Z,99212.25
2018-09-11T20:49:44.867Z,99216.02
2018-09-11T20:52:12.567Z,99214.93
2018-09-11T20:54:40.310Z,99217.63
2018-09-11T20:57:07.827Z,99218.45
2018-09-11T20:59:35.570Z,99211.20
2018-09-11T21:02:03.164Z,99219.50
2018-09-11T21:04:30.735Z,99217.90
2018-09-11T21:06:58.567Z,99213.63
2018-09-11T21:09:25.735Z,99223.79
2018-09-11T21:11:53.569Z,99214.13
2018-09-11T21:14:21.290Z,99224.61
2018-09-11T21:16:48.677Z,99221.92
2018-09-11T21:19:16.499Z,99216.02
2018-09-11T21:21:44.210Z,99214.68
2018-09-11T21:24:11.927Z,99225.69
2018-09-11T21:26:39.567Z,99221.40
2018-09-11T21:29:07.294Z,99215.22
2018-09-11T21:31:35.033Z,99216.31
2018-09-11T21:34:02.743Z,99217.11
2018-09-11T21:36:30.487Z,99220.08
2018-09-11T21:38:58.575Z,99224.89
2018-09-11T21:41:26.064Z,99222.47
2018-09-11T21:43:53.739Z,99219.80
2018-09-11T21:46:21.490Z,99220.33
2018-09-11T21:48:49.052Z,99220.88
2018-09-11T21:51:16.902Z,99222.24
2018-09-11T21:53:44.579Z,99223.31
2018-09-11T21:56:12.438Z,99222.53
2018-09-11T21:58:40.015Z,99222.30
2018-09-11T22:01:13.645Z,99226.84
2018-09-11T22:03:41.407Z,99234.09
2018-09-11T22:06:09.035Z,99230.89
2018-09-11T22:08:36.727Z,99228.45
2018-09-11T22:11:03.955Z,99227.91
2018-09-11T22:13:31.739Z,99229.78
2018-09-11T22:15:59.579Z,99237.31
2018-09-11T22:18:27.062Z,99227.93
2018-09-11T22:20:54.858Z,99235.16
2018-09-11T22:23:22.576Z,99232.73
2018-09-11T22:25:50.415Z,99230.87
2018-09-11T22:28:18.015Z,99223.09
2018-09-11T22:30:45.643Z,99226.57
2018-09-11T22:33:13.304Z,99223.04
2018-09-11T22:35:41.405Z,99225.14
2018-09-11T22:38:09.002Z,99222.75
2018-09-11T22:40:36.463Z,99225.17
2018-09-11T22:43:04.617Z,99219.48
2018-09-11T22:45:32.291Z,99225.64
2018-09-11T22:47:59.999Z,99224.83
2018-09-11T22:50:28.461Z,99217.85
2018-09-11T22:52:56.307Z,99219.97
2018-09-11T22:55:23.916Z,99223.98
2018-09-11T22:57:51.792Z,99221.05
2018-09-11T23:00:19.531Z,99222.64
2018-09-11T23:02:47.403Z,99219.94
2018-09-11T23:05:15.041Z,99217.26
2018-09-11T23:07:42.795Z,99214.80
2018-09-11T23:10:10.539Z,99215.03
2018-09-11T23:12:38.106Z,99214.99
2018-09-11T23:15:06.398Z,99218.30
2018-09-11T23:17:34.398Z,99215.55
2018-09-11T23:20:02.530Z,99220.28
2018-09-11T23:22:30.160Z,99215.95
2018-09-11T23:24:57.723Z,99219.20
2018-09-11T23:27:25.655Z,99214.02
2018-09-11T23:29:52.729Z,99213.25
2018-09-11T23:32:20.455Z,99210.25
2018-09-11T23:34:48.025Z,99215.86
2018-09-11T23:37:15.882Z,99219.08
2018-09-11T23:39:43.679Z,99207.97
2018-09-11T23:42:11.422Z,99223.85
2018-09-11T23:44:39.010Z,99224.36
2018-09-11T23:47:06.735Z,99225.38
2018-09-11T23:49:34.680Z,99220.25
2018-09-11T23:52:02.456Z,99220.14
2018-09-11T23:54:30.033Z,99223.86
2018-09-11T23:56:57.734Z,99213.31
2018-09-11T23:59:25.531Z,99211.34
